Time;durP1;ratioP1;P1;durP2;ratioP2;P2;SDS_P1;SDS_P2;PMS_P1;PMS_P2;Temp;Humidity;BMP_temperature;BMP_pressure;BME280_temperature;BME280_humidity;BME280_pressure;Samples;Min_cycle;Max_cycle;Signal;HPM_P1;HPM_P2
2022/09/28 00:01:18;;;;;;;2.55;0.73;;;10.50;99.90;;;;;;5057195;28;20036;-68
2022/09/28 00:03:46;;;;;;;5.57;0.70;;;10.60;99.90;;;;;;5057247;28;20036;-68
2022/09/28 00:06:14;;;;;;;4.85;1.10;;;10.50;99.90;;;;;;5057058;28;20043;-68
2022/09/28 00:08:40;;;;;;;1.48;0.70;;;10.60;99.90;;;;;;5057014;28;20124;-68
2022/09/28 00:11:11;;;;;;;2.08;0.77;;;10.50;99.90;;;;;;5056623;28;20071;-69
2022/09/28 00:13:37;;;;;;;3.95;0.93;;;10.60;99.90;;;;;;5056909;28;20041;-69
2022/09/28 00:16:04;;;;;;;3.85;0.80;;;10.60;99.90;;;;;;5056860;28;20048;-69
2022/09/28 00:18:30;;;;;;;5.78;1.15;;;10.60;99.90;;;;;;5055561;28;20480;-69
2022/09/28 00:21:24;;;;;;;1.83;0.73;;;10.60;99.90;;;;;;5056676;28;20037;-69
2022/09/28 00:26:39;;;;;;;3.40;0.77;;;10.70;99.90;;;;;;5056749;28;20059;-69
2022/09/28 00:29:06;;;;;;;5.60;0.90;;;10.70;99.90;;;;;;5056558;28;20053;-69
2022/09/28 00:31:34;;;;;;;2.53;1.02;;;10.70;99.90;;;;;;5056460;28;20028;-69
2022/09/28 00:34:01;;;;;;;4.10;1.00;;;10.70;99.90;;;;;;5055846;28;20369;-69
2022/09/28 00:36:29;;;;;;;3.78;1.00;;;10.70;99.90;;;;;;5056098;28;20404;-69
2022/09/28 00:38:56;;;;;;;2.17;0.90;;;10.70;99.90;;;;;;5056342;28;20064;-69
2022/09/28 00:41:26;;;;;;;5.53;1.13;;;10.70;99.90;;;;;;5056422;28;20029;-69
2022/09/28 00:44:13;;;;;;;3.35;0.80;;;10.70;99.90;;;;;;5056357;28;20044;-69
2022/09/28 00:46:40;;;;;;;2.80;0.95;;;10.80;99.90;;;;;;5056016;28;20511;-69
2022/09/28 00:49:11;;;;;;;3.67;1.13;;;10.80;99.90;;;;;;5056167;28;20044;-69
2022/09/28 00:51:37;;;;;;;;;;;10.70;99.90;;;;;;5056634;28;20043;-69
2022/09/28 00:54:06;;;;;;;5.43;0.88;;;10.80;99.90;;;;;;5056173;28;19939;-68
2022/09/28 00:56:35;;;;;;;2.72;0.93;;;10.80;99.90;;;;;;5056180;28;20049;-69
2022/09/28 00:59:03;;;;;;;3.67;0.60;;;10.80;99.90;;;;;;5055885;28;20037;-69
2022/09/28 01:01:29;;;;;;;3.25;1.00;;;10.80;99.90;;;;;;5055950;28;20447;-69
2022/09/28 01:03:57;;;;;;;2.95;0.77;;;10.80;99.90;;;;;;5054719;28;20041;-69
2022/09/28 01:06:32;;;;;;;8.07;0.90;;;10.80;99.90;;;;;;5054794;28;20045;-69
2022/09/28 01:09:01;;;;;;;1.70;0.65;;;10.80;99.90;;;;;;5056001;28;20493;-69
2022/09/28 01:11:30;;;;;;;1.48;0.73;;;10.90;99.90;;;;;;5054922;28;20480;-69
2022/09/28 01:13:57;;;;;;;3.95;1.23;;;10.90;99.90;;;;;;5055957;28;20123;-69
2022/09/28 01:17:02;;;;;;;6.43;0.93;;;10.90;99.90;;;;;;5055801;28;20049;-69
2022/09/28 01:19:46;;;;;;;2.00;0.63;;;10.90;99.90;;;;;;5055363;28;20040;-69
2022/09/28 01:22:33;;;;;;;6.28;0.82;;;11.00;99.90;;;;;;5055256;28;20040;-69
2022/09/28 01:25:23;;;;;;;2.67;0.57;;;11.00;99.90;;;;;;5055662;28;20033;-69
2022/09/28 01:28:10;;;;;;;2.50;0.75;;;11.00;99.90;;;;;;5055848;28;20120;-69
2022/09/28 01:30:43;;;;;;;5.25;0.90;;;11.00;99.90;;;;;;5054201;28;20102;-69
2022/09/28 01:33:16;;;;;;;2.80;0.70;;;11.10;99.90;;;;;;5046333;28;20374;-69
2022/09/28 01:36:09;;;;;;;2.17;0.82;;;11.10;99.90;;;;;;5048782;28;20108;-69
2022/09/28 01:39:07;;;;;;;3.63;0.68;;;11.10;99.90;;;;;;5035048;28;20038;-69
2022/09/28 01:41:37;;;;;;;4.07;0.75;;;11.10;99.90;;;;;;5035509;28;20091;-69
2022/09/28 01:44:04;;;;;;;4.97;0.85;;;11.20;99.90;;;;;;5035306;28;20034;-69
2022/09/28 01:46:44;;;;;;;1.33;0.60;;;11.20;99.90;;;;;;5050400;28;20091;-69
2022/09/28 01:49:33;;;;;;;2.38;0.65;;;11.20;99.90;;;;;;5035118;28;20413;-69
2022/09/28 01:52:14;;;;;;;2.88;0.68;;;11.30;99.90;;;;;;5035140;28;20128;-69
2022/09/28 01:54:54;;;;;;;1.58;0.60;;;11.30;99.90;;;;;;5035044;28;20043;-69
2022/09/28 01:57:25;;;;;;;2.55;0.65;;;11.30;99.90;;;;;;5034926;28;20045;-69
2022/09/28 01:59:54;;;;;;;;;;;11.40;99.90;;;;;;5035427;28;20030;-69
2022/09/28 02:02:28;;;;;;;3.17;0.40;;;11.40;99.90;;;;;;5035028;28;20111;-69
2022/09/28 02:05:07;;;;;;;0.70;0.50;;;11.40;99.90;;;;;;5035070;28;20444;-69
2022/09/28 02:07:56;;;;;;;4.00;0.52;;;11.50;99.90;;;;;;5034945;28;20052;-69
2022/09/28 02:10:26;;;;;;;1.75;0.38;;;11.50;99.90;;;;;;5064998;28;20032;-69
2022/09/28 02:13:04;;;;;;;4.15;0.75;;;11.50;99.90;;;;;;5073397;28;20115;-69
2022/09/28 02:16:00;;;;;;;1.50;0.45;;;11.60;99.90;;;;;;5073253;28;20050;-70
2022/09/28 02:18:26;;;;;;;3.13;0.50;;;11.60;99.90;;;;;;5073417;28;20503;-69
2022/09/28 02:21:23;;;;;;;0.95;0.30;;;11.70;99.90;;;;;;5074398;28;20066;-69
2022/09/28 02:23:59;;;;;;;2.63;0.52;;;11.70;99.90;;;;;;5074060;28;20086;-69
2022/09/28 02:26:31;;;;;;;0.80;0.40;;;11.60;99.90;;;;;;5074344;28;20032;-69
2022/09/28 02:28:58;;;;;;;0.93;0.38;;;11.60;99.90;;;;;;5074261;28;20051;-68
2022/09/28 02:31:24;;;;;;;0.68;0.47;;;11.60;99.90;;;;;;5074200;28;20040;-69
2022/09/28 02:33:52;;;;;;;0.50;0.40;;;11.70;99.90;;;;;;5074385;28;20043;-69
2022/09/28 02:36:18;;;;;;;0.93;0.40;;;11.70;99.90;;;;;;5072818;28;20147;-69
2022/09/28 02:38:44;;;;;;;0.57;0.40;;;11.70;99.90;;;;;;5074265;28;20079;-69
2022/09/28 02:41:15;;;;;;;0.60;0.50;;;11.70;99.90;;;;;;5074166;28;20472;-68
2022/09/28 02:43:52;;;;;;;1.63;0.88;;;11.70;99.90;;;;;;5074135;28;20035;-68
2022/09/28 02:46:27;;;;;;;2.83;0.30;;;11.80;99.90;;;;;;5074120;28;20040;-68
2022/09/28 02:49:25;;;;;;;0.68;0.30;;;11.90;99.90;;;;;;5074160;28;20051;-68
2022/09/28 02:52:18;;;;;;;0.70;0.30;;;11.90;99.90;;;;;;5074122;28;20044;-68
2022/09/28 02:55:18;;;;;;;1.60;0.40;;;11.90;99.90;;;;;;5072739;28;20046;-68
2022/09/28 02:57:53;;;;;;;0.70;0.30;;;12.00;99.90;;;;;;5071778;28;20097;-68
2022/09/28 03:00:23;;;;;;;0.57;0.30;;;12.10;99.90;;;;;;5074271;28;20456;-68
2022/09/28 03:03:08;;;;;;;2.60;0.40;;;12.10;99.90;;;;;;5074176;28;20040;-68
2022/09/28 03:05:42;;;;;;;0.90;0.38;;;12.00;99.90;;;;;;5064402;28;20041;-68
2022/09/28 03:08:23;;;;;;;0.77;0.20;;;12.00;99.90;;;;;;5052354;28;20045;-68
2022/09/28 03:11:16;;;;;;;0.95;0.32;;;11.90;99.90;;;;;;5052357;28;20548;-69
2022/09/28 03:13:42;;;;;;;0.17;0.17;;;11.90;99.90;;;;;;5047863;28;20115;-68
2022/09/28 03:16:13;;;;;;;0.40;0.30;;;11.90;99.90;;;;;;5052671;28;20080;-68
2022/09/28 03:18:39;;;;;;;2.90;0.40;;;11.90;99.90;;;;;;5053774;28;20056;-68
2022/09/28 03:21:06;;;;;;;0.43;0.30;;;11.90;99.90;;;;;;5052364;28;20033;-69
2022/09/28 03:23:31;;;;;;;0.93;0.30;;;11.90;99.90;;;;;;5053817;28;20084;-68
2022/09/28 03:25:57;;;;;;;0.60;0.15;;;11.90;99.90;;;;;;5053752;28;20032;-68
2022/09/28 03:28:26;;;;;;;0.65;0.38;;;12.00;99.90;;;;;;5053604;28;20530;-69
2022/09/28 03:30:52;;;;;;;0.25;0.20;;;12.00;99.90;;;;;;5052188;28;20045;-68
2022/09/28 03:33:18;;;;;;;1.17;0.70;;;12.00;99.90;;;;;;5054390;28;20106;-68
2022/09/28 03:35:49;;;;;;;1.85;0.43;;;12.00;99.90;;;;;;5057681;28;20091;-68
2022/09/28 03:38:19;;;;;;;2.10;0.38;;;12.00;99.90;;;;;;5057832;28;20043;-68
2022/09/28 03:40:54;;;;;;;0.32;0.30;;;12.00;99.90;;;;;;5057648;28;20033;-68
2022/09/28 03:43:20;;;;;;;1.20;0.22;;;12.00;99.90;;;;;;5057546;28;20040;-69
2022/09/28 03:45:54;;;;;;;0.63;0.40;;;12.00;99.90;;;;;;5057587;28;20029;-69
2022/09/28 03:48:25;;;;;;;0.65;0.40;;;12.00;99.90;;;;;;5057573;28;20496;-69
2022/09/28 03:50:55;;;;;;;0.85;0.38;;;12.00;99.90;;;;;;5057528;28;20120;-68
2022/09/28 03:53:21;;;;;;;0.95;0.22;;;12.00;99.90;;;;;;5056218;28;20039;-69
2022/09/28 03:55:49;;;;;;;0.52;0.32;;;12.10;99.90;;;;;;5057214;28;20036;-69
2022/09/28 03:58:15;;;;;;;0.30;0.30;;;12.10;99.90;;;;;;5057167;28;20528;-69
2022/09/28 04:00:41;;;;;;;0.85;0.32;;;12.10;99.90;;;;;;5056895;28;20075;-69
2022/09/28 04:03:08;;;;;;;3.97;0.52;;;12.20;99.90;;;;;;5057229;28;20461;-69
2022/09/28 04:05:33;;;;;;;0.50;0.20;;;12.30;99.90;;;;;;5057319;28;20045;-69
2022/09/28 04:07:59;;;;;;;0.20;0.15;;;12.40;99.90;;;;;;5057203;28;20129;-69
2022/09/28 04:10:25;;;;;;;0.35;0.22;;;12.30;99.90;;;;;;5057004;28;20052;-69
2022/09/28 04:12:55;;;;;;;0.55;0.35;;;12.30;99.90;;;;;;5056856;28;20090;-69
2022/09/28 04:15:24;;;;;;;1.55;0.20;;;12.30;99.90;;;;;;5056961;28;20051;-70
2022/09/28 04:17:50;;;;;;;0.20;0.20;;;12.30;99.90;;;;;;5056964;28;20408;-69
2022/09/28 04:20:17;;;;;;;1.00;0.20;;;12.30;99.90;;;;;;5055714;28;20102;-69
2022/09/28 04:22:43;;;;;;;1.08;0.30;;;12.40;99.90;;;;;;5056929;28;20568;-69
2022/09/28 04:25:09;;;;;;;3.13;0.60;;;12.40;99.90;;;;;;5055406;28;20032;-69
2022/09/28 04:30:19;;;;;;;0.65;0.25;;;12.40;99.90;;;;;;5056861;28;20508;-69
2022/09/28 04:32:48;;;;;;;5.07;1.55;;;12.50;99.90;;;;;;5056660;28;20071;-69
2022/09/28 04:35:14;;;;;;;0.40;0.30;;;12.50;99.90;;;;;;5056364;28;20055;-69
2022/09/28 04:37:40;;;;;;;0.30;0.30;;;12.40;99.90;;;;;;5056511;28;20048;-69
2022/09/28 04:40:06;;;;;;;0.35;0.20;;;12.40;99.90;;;;;;5055311;28;20123;-69
2022/09/28 04:42:32;;;;;;;0.98;0.15;;;12.40;99.90;;;;;;5055213;28;20470;-69
2022/09/28 04:44:59;;;;;;;1.42;0.40;;;12.40;99.90;;;;;;5056409;28;20075;-69
2022/09/28 04:47:25;;;;;;;0.77;0.50;;;12.40;99.90;;;;;;5056127;28;20060;-69
2022/09/28 04:49:51;;;;;;;0.70;0.50;;;12.40;99.90;;;;;;5054753;28;20040;-69
2022/09/28 04:52:17;;;;;;;0.47;0.40;;;12.40;99.90;;;;;;5055789;28;20051;-69
2022/09/28 04:54:43;;;;;;;1.55;0.90;;;12.50;99.90;;;;;;5056098;28;20045;-69
2022/09/28 04:57:08;;;;;;;1.23;0.60;;;12.50;99.90;;;;;;5056343;28;20045;-69
2022/09/28 04:59:36;;;;;;;0.50;0.40;;;12.40;99.90;;;;;;5056151;28;20083;-69
2022/09/28 05:02:03;;;;;;;0.30;0.30;;;12.50;99.90;;;;;;5055986;28;20041;-69
2022/09/28 05:04:29;;;;;;;0.65;0.40;;;12.50;99.90;;;;;;5055964;28;20045;-69
2022/09/28 05:06:58;;;;;;;0.60;0.40;;;12.50;99.90;;;;;;5055360;28;20132;-69
2022/09/28 05:09:24;;;;;;;2.75;0.88;;;12.50;99.90;;;;;;5055788;28;20075;-69
2022/09/28 05:11:51;;;;;;;1.00;0.65;;;12.60;99.90;;;;;;5055948;28;20417;-69
2022/09/28 05:14:20;;;;;;;1.67;0.50;;;12.60;99.90;;;;;;5055728;28;20044;-69
2022/09/28 05:16:47;;;;;;;0.50;0.43;;;12.60;99.90;;;;;;5055709;28;20087;-69
2022/09/28 05:19:13;;;;;;;1.33;0.50;;;12.50;99.90;;;;;;5055513;28;20041;-69
2022/09/28 05:21:39;;;;;;;1.15;0.63;;;12.50;99.90;;;;;;5055375;28;20051;-69
2022/09/28 05:24:06;;;;;;;0.52;0.35;;;12.60;99.90;;;;;;5054317;28;20032;-69
2022/09/28 05:26:33;;;;;;;1.15;0.50;;;12.60;99.90;;;;;;5055614;28;20043;-69
2022/09/28 05:28:58;;;;;;;0.47;0.25;;;12.70;99.90;;;;;;5055586;28;20033;-69
2022/09/28 05:31:26;;;;;;;0.60;0.30;;;12.70;99.90;;;;;;5055395;28;20449;-69
2022/09/28 05:33:52;;;;;;;0.77;0.30;;;12.70;99.90;;;;;;5054677;28;20114;-69
2022/09/28 05:36:18;;;;;;;0.95;0.40;;;12.80;99.90;;;;;;5051613;28;20045;-69
2022/09/28 05:38:45;;;;;;;0.43;0.20;;;12.80;99.90;;;;;;5042547;28;20040;-69
2022/09/28 05:41:11;;;;;;;0.43;0.20;;;12.80;99.90;;;;;;5052203;28;20056;-69
2022/09/28 05:43:37;;;;;;;0.52;0.30;;;12.80;99.90;;;;;;5052616;28;20559;-69
2022/09/28 05:46:04;;;;;;;0.63;0.20;;;12.80;99.90;;;;;;5051605;28;20036;-69
2022/09/28 05:48:30;;;;;;;0.20;0.13;;;12.80;99.90;;;;;;5051816;28;20423;-68
2022/09/28 05:50:57;;;;;;;0.45;0.20;;;12.90;99.90;;;;;;5052464;28;20045;-69
2022/09/28 05:53:23;;;;;;;0.68;0.50;;;12.90;99.90;;;;;;5052981;28;20045;-70
2022/09/28 05:55:49;;;;;;;2.08;0.70;;;;;;;;;;5052803;28;20131;-69
2022/09/28 05:58:15;;;;;;;1.10;0.50;;;12.90;99.90;;;;;;5053694;28;20037;-69
2022/09/28 06:00:42;;;;;;;0.43;0.40;;;13.00;99.90;;;;;;5055054;28;20079;-69
2022/09/28 06:03:11;;;;;;;0.75;0.40;;;13.00;99.90;;;;;;5054859;28;20384;-68
2022/09/28 06:05:40;;;;;;;1.50;0.45;;;13.00;99.90;;;;;;5054763;28;20405;-69
2022/09/28 06:08:09;;;;;;;0.40;0.28;;;13.00;99.90;;;;;;5053787;28;20051;-68
2022/09/28 06:10:35;;;;;;;0.68;0.20;;;13.10;99.90;;;;;;5053829;28;20554;-69
2022/09/28 06:13:01;;;;;;;0.70;0.30;;;13.10;99.90;;;;;;5054559;28;20032;-71
2022/09/28 06:15:29;;;;;;;2.25;0.20;;;13.10;99.90;;;;;;5054212;28;20052;-71
2022/09/28 06:17:59;;;;;;;2.45;0.30;;;13.20;99.90;;;;;;5054257;28;20040;-70
2022/09/28 06:20:27;;;;;;;0.40;0.22;;;13.20;99.90;;;;;;5054193;28;20126;-72
2022/09/28 06:22:53;;;;;;;0.15;0.10;;;13.20;99.90;;;;;;5054513;28;20083;-70
2022/09/28 06:25:20;;;;;;;0.30;0.20;;;13.30;99.90;;;;;;5054321;28;20203;-70
2022/09/28 06:27:57;;;;;;;0.20;0.20;;;13.40;99.90;;;;;;5053994;28;20033;-71
2022/09/28 06:30:25;;;;;;;0.45;0.30;;;13.40;99.90;;;;;;5054543;28;20052;-70
2022/09/28 06:32:53;;;;;;;0.28;0.20;;;13.40;99.90;;;;;;5053228;28;20056;-70
2022/09/28 06:35:20;;;;;;;0.75;0.30;;;13.50;99.90;;;;;;5054291;28;20048;-71
2022/09/28 06:37:46;;;;;;;0.10;0.00;;;13.40;99.90;;;;;;5052964;28;20131;-71
2022/09/28 06:40:12;;;;;;;0.50;0.20;;;13.40;99.90;;;;;;5054488;28;20551;-70
2022/09/28 06:42:38;;;;;;;0.85;0.30;;;13.40;99.90;;;;;;5054133;28;20075;-70
2022/09/28 06:45:04;;;;;;;0.65;0.20;;;13.50;99.90;;;;;;5054235;28;20075;-71
2022/09/28 06:47:32;;;;;;;0.70;0.22;;;13.50;99.90;;;;;;5054124;28;20059;-70
2022/09/28 06:49:58;;;;;;;0.10;0.10;;;13.60;99.90;;;;;;5054194;28;20033;-70
2022/09/28 06:52:24;;;;;;;0.55;0.22;;;13.60;99.90;;;;;;5054133;28;20033;-70
2022/09/28 06:54:51;;;;;;;0.50;0.35;;;13.50;99.90;;;;;;5054076;28;20072;-70
2022/09/28 06:57:17;;;;;;;0.05;0.05;;;13.50;99.90;;;;;;5053960;28;20373;-70
2022/09/28 06:59:43;;;;;;;0.32;0.20;;;13.40;99.90;;;;;;5052722;28;20051;-70
2022/09/28 07:02:15;;;;;;;0.88;0.35;;;13.30;99.90;;;;;;5054082;28;20040;-70
2022/09/28 07:04:42;;;;;;;1.13;0.50;;;13.20;99.90;;;;;;5052633;28;20461;-70
2022/09/28 07:07:11;;;;;;;0.75;0.40;;;13.10;99.90;;;;;;5052338;28;20044;-70
2022/09/28 07:09:37;;;;;;;1.45;0.25;;;13.10;99.90;;;;;;5053369;28;20048;-70
2022/09/28 07:12:03;;;;;;;0.55;0.20;;;13.10;99.90;;;;;;5053940;28;20041;-70
2022/09/28 07:14:33;;;;;;;1.60;0.20;;;13.10;99.90;;;;;;5053897;28;20385;-70
2022/09/28 07:16:58;;;;;;;1.50;0.50;;;13.10;99.90;;;;;;5053889;28;20055;-70
2022/09/28 07:19:24;;;;;;;2.83;1.02;;;13.10;99.90;;;;;;5053842;28;20045;-70
2022/09/28 07:21:53;;;;;;;1.13;0.90;;;13.10;99.90;;;;;;5053864;28;20035;-70
2022/09/28 07:24:19;;;;;;;1.10;0.60;;;13.10;99.90;;;;;;5052443;28;20041;-70
2022/09/28 07:26:44;;;;;;;2.05;1.65;;;13.10;99.90;;;;;;5052427;28;20044;-70
2022/09/28 07:29:12;;;;;;;1.88;1.20;;;13.10;99.90;;;;;;5053741;28;20112;-70
2022/09/28 07:31:39;;;;;;;3.28;1.33;;;13.20;99.90;;;;;;5052324;28;20386;-70
2022/09/28 07:34:05;;;;;;;3.15;1.15;;;13.20;99.90;;;;;;5052259;28;20044;-70
2022/09/28 07:36:33;;;;;;;3.53;1.50;;;13.20;99.90;;;;;;5052005;28;20137;-70
2022/09/28 07:39:02;;;;;;;3.38;1.55;;;13.20;99.90;;;;;;5068803;28;20055;-70
2022/09/28 07:41:31;;;;;;;2.53;1.45;;;13.20;99.90;;;;;;5052309;28;20037;-70
2022/09/28 07:44:06;;;;;;;3.70;2.17;;;13.40;99.90;;;;;;5053113;28;20041;-70
2022/09/28 07:46:35;;;;;;;5.85;2.60;;;13.50;99.90;;;;;;5053899;28;20508;-70
2022/09/28 07:49:04;;;;;;;5.80;2.60;;;13.50;99.90;;;;;;5052306;28;20045;-70
2022/09/28 07:51:30;;;;;;;6.22;2.42;;;13.50;99.90;;;;;;5052020;28;20051;-70
2022/09/28 07:53:56;;;;;;;2.15;1.20;;;13.70;99.90;;;;;;5053524;28;20087;-70
2022/09/28 07:56:22;;;;;;;2.05;1.52;;;13.90;99.90;;;;;;5053542;28;20053;-70
2022/09/28 07:58:48;;;;;;;1.88;0.70;;;14.20;99.90;;;;;;5053449;28;20481;-70
2022/09/28 08:01:15;;;;;;;1.75;0.40;;;14.40;99.90;;;;;;5053403;28;20041;-71
2022/09/28 08:03:46;;;;;;;1.33;0.30;;;14.60;99.90;;;;;;5053413;28;20040;-71
2022/09/28 08:06:15;;;;;;;0.63;0.30;;;14.60;99.90;;;;;;5052095;28;20033;-71
2022/09/28 08:08:43;;;;;;;0.68;0.43;;;14.50;99.90;;;;;;5053424;28;20458;-70
2022/09/28 08:11:16;;;;;;;1.00;0.52;;;14.60;99.90;;;;;;5051976;28;20374;-71
2022/09/28 08:13:44;;;;;;;0.43;0.32;;;14.60;99.90;;;;;;5053309;28;20124;-71
2022/09/28 08:16:11;;;;;;;2.78;0.60;;;14.70;99.90;;;;;;5053325;28;20576;-71
2022/09/28 08:18:37;;;;;;;0.50;0.30;;;15.00;99.90;;;;;;5053272;28;20396;-70
2022/09/28 08:23:49;;;;;;;0.63;0.30;;;15.10;99.90;;;;;;5056958;28;20511;-72
2022/09/28 08:26:15;;;;;;;2.80;0.50;;;15.10;99.90;;;;;;5056984;28;20049;-71
2022/09/28 08:28:42;;;;;;;0.22;0.20;;;15.00;99.90;;;;;;5056823;28;20064;-70
2022/09/28 08:31:08;;;;;;;1.02;0.30;;;14.80;99.90;;;;;;5056378;28;20846;-71
2022/09/28 08:33:34;;;;;;;0.85;0.38;;;14.70;99.90;;;;;;5055506;28;20029;-70
2022/09/28 08:36:02;;;;;;;0.50;0.30;;;14.70;99.90;;;;;;5056576;28;20056;-71
2022/09/28 08:38:29;;;;;;;2.83;1.35;;;14.70;99.90;;;;;;5056613;28;20048;-72
2022/09/28 08:41:14;;;;;;;0.30;0.22;;;14.70;99.90;;;;;;5056652;28;20057;-71
2022/09/28 08:43:48;;;;;;;1.33;0.40;;;14.60;99.90;;;;;;5056501;28;20040;-72
2022/09/28 08:46:17;;;;;;;1.73;0.65;;;14.60;99.90;;;;;;5056573;28;20063;-72
2022/09/28 08:49:04;;;;;;;0.77;0.30;;;14.70;99.90;;;;;;5055143;28;20032;-72
2022/09/28 08:51:50;;;;;;;1.58;0.30;;;14.60;99.90;;;;;;5056288;28;20410;-71
2022/09/28 08:54:48;;;;;;;0.55;0.30;;;14.70;99.90;;;;;;5056276;28;20116;-71
2022/09/28 08:57:21;;;;;;;0.65;0.32;;;14.80;99.90;;;;;;5056325;28;20055;-71
2022/09/28 08:59:55;;;;;;;0.40;0.32;;;14.70;99.90;;;;;;5056293;28;20171;-73
2022/09/28 09:02:38;;;;;;;0.70;0.20;;;14.80;99.90;;;;;;5056034;28;20573;-70
2022/09/28 09:05:06;;;;;;;0.55;0.30;;;14.80;99.90;;;;;;5053384;28;20500;-71
2022/09/28 09:07:59;;;;;;;0.20;0.20;;;14.70;99.90;;;;;;5040430;28;20045;-71
2022/09/28 09:10:43;;;;;;;0.10;0.10;;;14.70;99.90;;;;;;5051370;28;20091;-73
2022/09/28 09:13:39;;;;;;;0.43;0.20;;;14.70;99.90;;;;;;5036018;28;20124;-73
2022/09/28 09:16:26;;;;;;;2.08;0.55;;;14.60;99.90;;;;;;5035908;28;20041;-70
2022/09/28 09:18:59;;;;;;;0.63;0.30;;;14.60;99.90;;;;;;5051251;28;20044;-71
2022/09/28 09:21:31;;;;;;;3.40;0.20;;;14.70;99.90;;;;;;5035954;28;20461;-70
2022/09/28 09:24:17;;;;;;;0.80;0.30;;;14.60;99.90;;;;;;5066233;28;20094;-71
2022/09/28 09:26:42;;;;;;;0.38;0.10;;;14.60;99.90;;;;;;5054301;28;20557;-70
2022/09/28 09:29:42;;;;;;;1.60;0.70;;;14.60;99.90;;;;;;5055554;28;20036;-71
2022/09/28 09:32:10;;;;;;;0.22;0.20;;;14.60;99.90;;;;;;5054842;28;20123;-71
2022/09/28 09:35:14;;;;;;;0.88;0.60;;;14.60;99.90;;;;;;5055495;28;20493;-72
2022/09/28 09:37:46;;;;;;;0.65;0.32;;;14.60;99.90;;;;;;5053642;28;20048;-70
2022/09/28 09:40:30;;;;;;;1.02;0.38;;;14.60;99.90;;;;;;5053560;28;20045;-70
2022/09/28 09:43:35;;;;;;;0.30;0.30;;;14.70;99.90;;;;;;5047936;28;20033;-71
2022/09/28 09:46:56;;;;;;;1.15;0.50;;;14.70;99.90;;;;;;5024722;28;20469;-72
2022/09/28 09:50:03;;;;;;;3.20;0.32;;;14.90;99.90;;;;;;4972624;28;20039;-72
2022/09/28 09:52:38;;;;;;;2.13;1.38;;;15.00;99.90;;;;;;5014206;28;20086;-71
2022/09/28 09:55:15;;;;;;;1.10;0.65;;;15.10;99.90;;;;;;5033031;28;20140;-72
2022/09/28 09:57:50;;;;;;;1.17;0.65;;;15.20;99.90;;;;;;5033073;28;20037;-71
2022/09/28 10:00:17;;;;;;;0.98;0.50;;;15.20;99.90;;;;;;5033265;28;20052;-72
2022/09/28 10:02:47;;;;;;;0.43;0.30;;;15.10;99.90;;;;;;5034579;28;20588;-71
2022/09/28 10:05:12;;;;;;;1.65;0.85;;;15.10;99.90;;;;;;5035016;28;20076;-70
2022/09/28 10:08:03;;;;;;;1.15;0.80;;;15.10;99.90;;;;;;5045782;28;20037;-71
2022/09/28 10:10:34;;;;;;;;;;;15.20;99.90;;;;;;5046927;28;20041;-72
2022/09/28 10:13:00;;;;;;;;;;;15.30;99.90;;;;;;5053545;28;19919;-71
2022/09/28 10:15:34;;;;;;;1.50;0.30;;;15.30;99.90;;;;;;5052030;28;19917;-71
2022/09/28 10:18:09;;;;;;;0.20;0.10;;;15.50;99.90;;;;;;5053316;28;20041;-72
2022/09/28 10:20:38;;;;;;;0.30;0.20;;;15.50;99.90;;;;;;5054725;28;20037;-74
2022/09/28 10:23:10;;;;;;;0.20;0.10;;;15.50;99.90;;;;;;5053393;28;20040;-71
2022/09/28 10:25:37;;;;;;;0.13;0.10;;;15.70;99.90;;;;;;5054435;28;20041;-70
2022/09/28 10:28:06;;;;;;;1.45;0.20;;;15.80;99.90;;;;;;5054459;28;20120;-71
2022/09/28 10:30:42;;;;;;;3.08;0.55;;;15.90;99.90;;;;;;5054696;28;20504;-71
2022/09/28 10:33:30;;;;;;;0.68;0.32;;;15.90;99.90;;;;;;5054428;28;20118;-73
2022/09/28 10:35:57;;;;;;;0.93;0.32;;;16.00;99.90;;;;;;5054216;28;20044;-71
2022/09/28 10:38:23;;;;;;;0.20;0.10;;;16.10;99.90;;;;;;5054571;28;20033;-69
2022/09/28 10:40:54;;;;;;;1.38;0.20;;;16.00;99.90;;;;;;5054244;28;20539;-71
2022/09/28 10:43:28;;;;;;;0.15;0.10;;;15.90;99.90;;;;;;5054129;28;20045;-68
2022/09/28 10:46:19;;;;;;;0.73;0.20;;;15.90;99.90;;;;;;5053945;28;20033;-69
2022/09/28 10:48:59;;;;;;;2.42;0.57;;;15.70;99.90;;;;;;5046064;28;20037;-68
2022/09/28 10:51:42;;;;;;;2.58;0.20;;;15.80;99.90;;;;;;5032884;28;20067;-69
2022/09/28 10:54:18;;;;;;;0.28;0.10;;;15.90;99.90;;;;;;5034175;28;20087;-69
2022/09/28 10:56:45;;;;;;;1.90;0.17;;;15.90;99.90;;;;;;5032352;28;20053;-69
2022/09/28 10:59:30;;;;;;;0.38;0.20;;;;;;;;;;5031938;28;20037;-69
2022/09/28 11:02:20;;;;;;;1.27;0.30;;;16.20;99.90;;;;;;5031794;28;20029;-69
2022/09/28 11:05:06;;;;;;;1.40;0.30;;;16.40;99.90;;;;;;5031680;28;20038;-71
2022/09/28 11:07:42;;;;;;;0.52;0.20;;;16.50;99.90;;;;;;5038068;28;20107;-70
2022/09/28 11:10:29;;;;;;;2.53;0.20;;;16.60;99.90;;;;;;5036972;28;20125;-70
2022/09/28 11:12:56;;;;;;;0.65;0.22;;;16.70;99.90;;;;;;5032343;28;20092;-71
2022/09/28 11:15:27;;;;;;;0.10;0.10;;;16.70;99.90;;;;;;5031485;28;20102;-70
2022/09/28 11:17:55;;;;;;;0.35;0.17;;;16.60;99.90;;;;;;5030288;28;20041;-70
2022/09/28 11:20:24;;;;;;;1.30;0.65;;;16.60;99.90;;;;;;5049934;28;20037;-71
2022/09/28 11:22:52;;;;;;;2.33;0.55;;;16.80;99.90;;;;;;5051088;28;20048;-71
2022/09/28 11:25:20;;;;;;;1.15;0.65;;;16.90;99.90;;;;;;5050881;28;20044;-70
2022/09/28 11:27:52;;;;;;;1.77;0.40;;;17.10;99.90;;;;;;5051328;28;20037;-71
2022/09/28 11:30:29;;;;;;;2.40;1.10;;;17.00;99.90;;;;;;5046629;28;20086;-73
2022/09/28 11:33:18;;;;;;;1.00;0.40;;;17.10;99.90;;;;;;5043196;28;20045;-73
2022/09/28 11:36:12;;;;;;;1.00;0.50;;;17.10;99.90;;;;;;5059166;28;20060;-71
2022/09/28 11:39:15;;;;;;;1.58;0.80;;;17.00;99.90;;;;;;5049662;28;20053;-73
2022/09/28 11:41:59;;;;;;;0.30;0.20;;;17.20;99.90;;;;;;5049681;28;20052;-72
2022/09/28 11:44:36;;;;;;;0.47;0.30;;;17.10;99.90;;;;;;5050144;28;20039;-74
2022/09/28 11:47:30;;;;;;;0.80;0.15;;;17.00;99.90;;;;;;5050417;28;20527;-72
2022/09/28 11:50:35;;;;;;;4.25;0.40;;;16.80;99.90;;;;;;5053716;28;20052;-72
2022/09/28 11:53:10;;;;;;;0.60;0.20;;;16.60;99.90;;;;;;5051770;28;20083;-70
2022/09/28 11:56:01;;;;;;;1.75;0.10;;;16.30;99.90;;;;;;5061709;28;20037;-69
2022/09/28 11:58:39;;;;;;;3.55;0.43;;;16.00;99.90;;;;;;5074393;28;20042;-69
2022/09/28 12:01:09;;;;;;;0.45;0.20;;;15.80;99.90;;;;;;5072893;28;20064;-70
2022/09/28 12:03:45;;;;;;;0.10;0.10;;;15.60;99.90;;;;;;5072056;28;20480;-70
2022/09/28 12:06:18;;;;;;;1.52;0.50;;;15.40;99.90;;;;;;5073873;28;20036;-70
2022/09/28 12:08:54;;;;;;;0.85;0.30;;;15.20;99.90;;;;;;5074597;28;20035;-70
2022/09/28 12:11:31;;;;;;;0.40;0.20;;;15.20;99.90;;;;;;5069097;28;20061;-70
2022/09/28 12:13:59;;;;;;;0.20;0.10;;;15.00;99.90;;;;;;5053116;28;20051;-71
2022/09/28 12:16:34;;;;;;;1.17;0.10;;;14.70;99.90;;;;;;5055208;28;20044;-71
2022/09/28 12:19:15;;;;;;;0.30;0.10;;;14.90;99.90;;;;;;5070108;28;20480;-70
2022/09/28 12:21:52;;;;;;;0.40;0.10;;;14.90;99.90;;;;;;5054531;28;20033;-70
2022/09/28 12:24:29;;;;;;;4.28;0.15;;;14.80;99.90;;;;;;5055866;28;20063;-71
2022/09/28 12:27:24;;;;;;;3.30;0.20;;;14.80;99.90;;;;;;5056039;28;20123;-71
2022/09/28 12:30:11;;;;;;;0.45;0.30;;;14.70;99.90;;;;;;5047372;28;20086;-71
2022/09/28 12:32:42;;;;;;;0.73;0.13;;;14.80;99.90;;;;;;5035100;28;20068;-70
2022/09/28 12:35:23;;;;;;;0.52;0.05;;;14.90;99.90;;;;;;5034487;28;20049;-71
2022/09/28 12:38:20;;;;;;;0.88;0.00;;;15.10;99.90;;;;;;5034191;28;20034;-71
2022/09/28 12:41:08;;;;;;;0.55;0.13;;;14.80;99.90;;;;;;5034157;28;20396;-71
2022/09/28 12:43:39;;;;;;;0.10;0.00;;;14.90;99.90;;;;;;5049679;28;20087;-71
2022/09/28 12:46:29;;;;;;;0.30;0.20;;;14.70;99.90;;;;;;5034524;28;20038;-71
2022/09/28 12:49:11;;;;;;;0.00;0.00;;;14.60;99.90;;;;;;5034955;28;20052;-71
2022/09/28 12:51:47;;;;;;;0.10;0.00;;;14.40;99.90;;;;;;5035516;28;20387;-71
2022/09/28 12:54:46;;;;;;;0.10;0.00;;;14.30;99.90;;;;;;5034371;28;20038;-70
2022/09/28 12:57:30;;;;;;;0.20;0.00;;;14.30;99.90;;;;;;5034447;28;20140;-71
2022/09/28 13:00:03;;;;;;;0.17;0.10;;;14.30;99.90;;;;;;5034428;28;20069;-69
2022/09/28 13:02:54;;;;;;;1.00;0.00;;;14.20;99.90;;;;;;5036231;28;20041;-69
2022/09/28 13:05:29;;;;;;;0.00;0.00;;;14.10;99.90;;;;;;5034008;28;20051;-71
2022/09/28 13:08:29;;;;;;;0.25;0.10;;;14.00;99.90;;;;;;5032107;28;20123;-71
2022/09/28 13:11:37;;;;;;;0.10;0.00;;;14.20;99.90;;;;;;5034252;28;20508;-71
2022/09/28 13:14:21;;;;;;;0.17;0.00;;;14.40;99.90;;;;;;5042212;28;20076;-70
2022/09/28 13:17:00;;;;;;;0.47;0.17;;;14.20;99.90;;;;;;5036322;28;20045;-70
2022/09/28 13:19:56;;;;;;;0.30;0.10;;;14.20;99.90;;;;;;5053338;28;20033;-70
2022/09/28 13:22:37;;;;;;;1.35;0.22;;;14.10;99.90;;;;;;5050600;28;20045;-70
2022/09/28 13:25:17;;;;;;;0.20;0.10;;;14.30;99.90;;;;;;5052235;28;20061;-70
2022/09/28 13:27:51;;;;;;;0.20;0.05;;;14.10;99.90;;;;;;5051033;28;20044;-70
2022/09/28 13:30:18;;;;;;;0.20;0.10;;;14.20;99.90;;;;;;5053466;28;20033;-69